sensor_id;sensor_type;location;lat;lon;timestamp;P1;durP1;ratioP1;P2;durP2;ratioP2
20814;SDS011;10568;48.176;16.316;2023-06-22T00:02:23;5.15;;;2.88;;
20814;SDS011;10568;48.176;16.316;2023-06-22T00:04:49;5.75;;;2.65;;
20814;SDS011;10568;48.176;16.316;2023-06-22T00:07:15;5.07;;;2.60;;
20814;SDS011;10568;48.176;16.316;2023-06-22T00:09:40;5.47;;;2.45;;
20814;SDS011;10568;48.176;16.316;2023-06-22T00:12:06;8.20;;;2.85;;
20814;SDS011;10568;48.176;16.316;2023-06-22T00:14:32;5.53;;;2.42;;
20814;SDS011;10568;48.176;16.316;2023-06-22T00:16:58;6.57;;;3.08;;
20814;SDS011;10568;48.176;16.316;2023-06-22T00:19:24;6.40;;;2.72;;
20814;SDS011;10568;48.176;16.316;2023-06-22T00:21:50;7.50;;;2.80;;
20814;SDS011;10568;48.176;16.316;2023-06-22T00:24:19;6.45;;;2.80;;
20814;SDS011;10568;48.176;16.316;2023-06-22T00:26:46;5.72;;;2.80;;
20814;SDS011;10568;48.176;16.316;2023-06-22T00:29:13;5.05;;;2.45;;
20814;SDS011;10568;48.176;16.316;2023-06-22T00:31:39;4.75;;;2.72;;
20814;SDS011;10568;48.176;16.316;2023-06-22T00:34:04;3.92;;;2.40;;
20814;SDS011;10568;48.176;16.316;2023-06-22T00:36:31;4.03;;;2.70;;
20814;SDS011;10568;48.176;16.316;2023-06-22T00:38:57;5.60;;;2.47;;
20814;SDS011;10568;48.176;16.316;2023-06-22T00:41:23;3.50;;;2.50;;
20814;SDS011;10568;48.176;16.316;2023-06-22T00:43:49;11.93;;;2.83;;
20814;SDS011;10568;48.176;16.316;2023-06-22T00:46:14;6.00;;;2.70;;
20814;SDS011;10568;48.176;16.316;2023-06-22T00:48:40;6.40;;;2.88;;
20814;SDS011;10568;48.176;16.316;2023-06-22T00:51:09;6.07;;;2.38;;
20814;SDS011;10568;48.176;16.316;2023-06-22T00:53:35;7.03;;;2.55;;
20814;SDS011;10568;48.176;16.316;2023-06-22T00:56:02;7.22;;;2.92;;
20814;SDS011;10568;48.176;16.316;2023-06-22T00:58:30;4.10;;;2.40;;
20814;SDS011;10568;48.176;16.316;2023-06-22T01:00:56;4.13;;;2.42;;
20814;SDS011;10568;48.176;16.316;2023-06-22T01:03:22;5.68;;;2.58;;
20814;SDS011;10568;48.176;16.316;2023-06-22T01:05:48;7.07;;;2.25;;
20814;SDS011;10568;48.176;16.316;2023-06-22T01:08:23;5.93;;;2.90;;
20814;SDS011;10568;48.176;16.316;2023-06-22T01:10:51;5.30;;;2.70;;
20814;SDS011;10568;48.176;16.316;2023-06-22T01:13:35;3.78;;;2.42;;
20814;SDS011;10568;48.176;16.316;2023-06-22T01:16:26;6.68;;;2.83;;
20814;SDS011;10568;48.176;16.316;2023-06-22T01:18:55;4.90;;;2.45;;
20814;SDS011;10568;48.176;16.316;2023-06-22T01:21:24;5.05;;;2.75;;
20814;SDS011;10568;48.176;16.316;2023-06-22T01:29:39;4.00;;;2.55;;
20814;SDS011;10568;48.176;16.316;2023-06-22T01:32:06;7.57;;;2.40;;
20814;SDS011;10568;48.176;16.316;2023-06-22T01:34:32;4.65;;;2.80;;
20814;SDS011;10568;48.176;16.316;2023-06-22T01:36:59;6.47;;;3.17;;
20814;SDS011;10568;48.176;16.316;2023-06-22T01:39:27;6.97;;;3.25;;
20814;SDS011;10568;48.176;16.316;2023-06-22T01:41:54;6.40;;;2.38;;
20814;SDS011;10568;48.176;16.316;2023-06-22T01:44:20;5.35;;;2.80;;
20814;SDS011;10568;48.176;16.316;2023-06-22T01:46:47;5.47;;;2.60;;
20814;SDS011;10568;48.176;16.316;2023-06-22T01:49:15;6.25;;;2.35;;
20814;SDS011;10568;48.176;16.316;2023-06-22T01:51:40;5.18;;;2.30;;
20814;SDS011;10568;48.176;16.316;2023-06-22T01:54:06;5.88;;;2.85;;
20814;SDS011;10568;48.176;16.316;2023-06-22T01:56:33;5.85;;;2.65;;
20814;SDS011;10568;48.176;16.316;2023-06-22T01:59:03;7.07;;;2.70;;
20814;SDS011;10568;48.176;16.316;2023-06-22T02:01:44;6.07;;;2.88;;
20814;SDS011;10568;48.176;16.316;2023-06-22T02:04:21;8.63;;;3.10;;
20814;SDS011;10568;48.176;16.316;2023-06-22T02:06:51;6.03;;;2.53;;
20814;SDS011;10568;48.176;16.316;2023-06-22T02:09:24;8.57;;;2.75;;
20814;SDS011;10568;48.176;16.316;2023-06-22T02:11:54;6.80;;;3.35;;
20814;SDS011;10568;48.176;16.316;2023-06-22T02:14:22;5.35;;;2.75;;
20814;SDS011;10568;48.176;16.316;2023-06-22T02:16:49;7.65;;;3.08;;
20814;SDS011;10568;48.176;16.316;2023-06-22T02:19:16;9.35;;;2.70;;
20814;SDS011;10568;48.176;16.316;2023-06-22T02:21:44;5.90;;;2.60;;
20814;SDS011;10568;48.176;16.316;2023-06-22T02:24:10;6.43;;;2.72;;
20814;SDS011;10568;48.176;16.316;2023-06-22T02:26:36;7.15;;;2.80;;
20814;SDS011;10568;48.176;16.316;2023-06-22T02:29:03;5.80;;;2.40;;
20814;SDS011;10568;48.176;16.316;2023-06-22T02:31:29;8.00;;;2.50;;
20814;SDS011;10568;48.176;16.316;2023-06-22T02:33:56;7.22;;;2.60;;
20814;SDS011;10568;48.176;16.316;2023-06-22T02:36:23;4.33;;;2.57;;
20814;SDS011;10568;48.176;16.316;2023-06-22T02:38:50;4.68;;;2.50;;
20814;SDS011;10568;48.176;16.316;2023-06-22T02:41:15;5.30;;;2.50;;
20814;SDS011;10568;48.176;16.316;2023-06-22T02:43:45;7.30;;;2.77;;
20814;SDS011;10568;48.176;16.316;2023-06-22T02:46:11;5.60;;;3.00;;
20814;SDS011;10568;48.176;16.316;2023-06-22T02:48:38;5.87;;;2.60;;
20814;SDS011;10568;48.176;16.316;2023-06-22T02:51:05;6.33;;;2.57;;
20814;SDS011;10568;48.176;16.316;2023-06-22T02:53:31;6.50;;;3.10;;
20814;SDS011;10568;48.176;16.316;2023-06-22T02:55:57;5.60;;;2.37;;
20814;SDS011;10568;48.176;16.316;2023-06-22T02:58:23;7.07;;;2.90;;
20814;SDS011;10568;48.176;16.316;2023-06-22T03:00:49;7.13;;;3.22;;
20814;SDS011;10568;48.176;16.316;2023-06-22T03:03:18;4.25;;;2.58;;
20814;SDS011;10568;48.176;16.316;2023-06-22T03:05:44;7.00;;;2.73;;
20814;SDS011;10568;48.176;16.316;2023-06-22T03:08:10;7.33;;;2.93;;
20814;SDS011;10568;48.176;16.316;2023-06-22T03:10:36;8.27;;;2.90;;
20814;SDS011;10568;48.176;16.316;2023-06-22T03:13:02;3.25;;;2.50;;
20814;SDS011;10568;48.176;16.316;2023-06-22T03:15:27;8.17;;;3.00;;
20814;SDS011;10568;48.176;16.316;2023-06-22T03:17:54;3.43;;;2.30;;
20814;SDS011;10568;48.176;16.316;2023-06-22T03:20:20;5.07;;;2.90;;
20814;SDS011;10568;48.176;16.316;2023-06-22T03:22:46;5.30;;;3.00;;
20814;SDS011;10568;48.176;16.316;2023-06-22T03:25:13;4.87;;;2.73;;
20814;SDS011;10568;48.176;16.316;2023-06-22T03:27:43;7.20;;;2.80;;
20814;SDS011;10568;48.176;16.316;2023-06-22T03:30:13;5.70;;;2.53;;
20814;SDS011;10568;48.176;16.316;2023-06-22T03:32:38;5.33;;;2.77;;
20814;SDS011;10568;48.176;16.316;2023-06-22T03:35:04;4.30;;;2.60;;
20814;SDS011;10568;48.176;16.316;2023-06-22T03:37:31;5.80;;;3.03;;
20814;SDS011;10568;48.176;16.316;2023-06-22T03:39:57;9.20;;;3.03;;
20814;SDS011;10568;48.176;16.316;2023-06-22T03:42:23;5.90;;;2.90;;
20814;SDS011;10568;48.176;16.316;2023-06-22T03:44:48;12.50;;;2.70;;
20814;SDS011;10568;48.176;16.316;2023-06-22T03:47:14;9.02;;;3.35;;
20814;SDS011;10568;48.176;16.316;2023-06-22T03:49:40;4.77;;;2.70;;
20814;SDS011;10568;48.176;16.316;2023-06-22T03:52:05;5.57;;;2.57;;
20814;SDS011;10568;48.176;16.316;2023-06-22T03:54:31;5.60;;;2.50;;
20814;SDS011;10568;48.176;16.316;2023-06-22T03:56:57;5.47;;;3.13;;
20814;SDS011;10568;48.176;16.316;2023-06-22T03:59:24;6.40;;;2.67;;
20814;SDS011;10568;48.176;16.316;2023-06-22T04:01:50;6.78;;;2.90;;
20814;SDS011;10568;48.176;16.316;2023-06-22T04:04:17;4.80;;;2.70;;
20814;SDS011;10568;48.176;16.316;2023-06-22T04:06:43;7.27;;;3.23;;
20814;SDS011;10568;48.176;16.316;2023-06-22T04:09:09;4.97;;;2.80;;
20814;SDS011;10568;48.176;16.316;2023-06-22T04:11:35;4.47;;;2.80;;
20814;SDS011;10568;48.176;16.316;2023-06-22T04:14:00;6.30;;;3.00;;
20814;SDS011;10568;48.176;16.316;2023-06-22T04:16:26;6.07;;;2.83;;
20814;SDS011;10568;48.176;16.316;2023-06-22T04:18:52;6.07;;;3.03;;
20814;SDS011;10568;48.176;16.316;2023-06-22T04:21:18;7.27;;;3.10;;
20814;SDS011;10568;48.176;16.316;2023-06-22T04:23:44;5.23;;;3.13;;
20814;SDS011;10568;48.176;16.316;2023-06-22T04:26:11;5.07;;;2.80;;
20814;SDS011;10568;48.176;16.316;2023-06-22T04:28:38;6.05;;;3.08;;
20814;SDS011;10568;48.176;16.316;2023-06-22T04:31:04;8.27;;;3.03;;
20814;SDS011;10568;48.176;16.316;2023-06-22T04:33:30;7.97;;;3.05;;
20814;SDS011;10568;48.176;16.316;2023-06-22T04:35:56;10.63;;;2.92;;
20814;SDS011;10568;48.176;16.316;2023-06-22T04:38:23;8.07;;;2.85;;
20814;SDS011;10568;48.176;16.316;2023-06-22T04:40:50;4.63;;;2.72;;
20814;SDS011;10568;48.176;16.316;2023-06-22T04:43:15;7.50;;;3.00;;
20814;SDS011;10568;48.176;16.316;2023-06-22T04:45:41;9.77;;;3.03;;
20814;SDS011;10568;48.176;16.316;2023-06-22T04:48:07;7.03;;;3.22;;
20814;SDS011;10568;48.176;16.316;2023-06-22T04:50:40;11.57;;;3.05;;
20814;SDS011;10568;48.176;16.316;2023-06-22T04:53:06;9.50;;;3.47;;
20814;SDS011;10568;48.176;16.316;2023-06-22T04:55:37;5.90;;;3.38;;
20814;SDS011;10568;48.176;16.316;2023-06-22T04:58:06;6.60;;;2.85;;
20814;SDS011;10568;48.176;16.316;2023-06-22T05:00:35;6.15;;;2.90;;
20814;SDS011;10568;48.176;16.316;2023-06-22T05:03:06;6.82;;;3.20;;
20814;SDS011;10568;48.176;16.316;2023-06-22T05:05:39;7.00;;;2.97;;
20814;SDS011;10568;48.176;16.316;2023-06-22T05:08:05;8.32;;;3.92;;
20814;SDS011;10568;48.176;16.316;2023-06-22T05:10:37;8.88;;;3.53;;
20814;SDS011;10568;48.176;16.316;2023-06-22T05:13:06;6.35;;;3.13;;
20814;SDS011;10568;48.176;16.316;2023-06-22T05:15:32;5.53;;;2.53;;
20814;SDS011;10568;48.176;16.316;2023-06-22T05:18:02;6.35;;;3.65;;
20814;SDS011;10568;48.176;16.316;2023-06-22T05:20:30;8.23;;;3.30;;
20814;SDS011;10568;48.176;16.316;2023-06-22T05:22:56;10.10;;;3.38;;
20814;SDS011;10568;48.176;16.316;2023-06-22T05:25:21;6.82;;;3.30;;
20814;SDS011;10568;48.176;16.316;2023-06-22T05:27:47;5.15;;;2.88;;
20814;SDS011;10568;48.176;16.316;2023-06-22T05:30:13;6.85;;;3.55;;
20814;SDS011;10568;48.176;16.316;2023-06-22T05:32:39;6.45;;;3.70;;
20814;SDS011;10568;48.176;16.316;2023-06-22T05:35:04;7.50;;;2.88;;
20814;SDS011;10568;48.176;16.316;2023-06-22T05:37:30;6.13;;;2.70;;
20814;SDS011;10568;48.176;16.316;2023-06-22T05:39:56;6.93;;;2.88;;
20814;SDS011;10568;48.176;16.316;2023-06-22T05:42:22;7.50;;;3.10;;
20814;SDS011;10568;48.176;16.316;2023-06-22T05:44:50;8.95;;;2.85;;
20814;SDS011;10568;48.176;16.316;2023-06-22T05:47:16;6.50;;;2.60;;
20814;SDS011;10568;48.176;16.316;2023-06-22T05:49:58;7.28;;;3.08;;
20814;SDS011;10568;48.176;16.316;2023-06-22T05:52:24;7.07;;;1.92;;
20814;SDS011;10568;48.176;16.316;2023-06-22T05:54:50;13.00;;;3.08;;
20814;SDS011;10568;48.176;16.316;2023-06-22T05:57:16;7.25;;;2.75;;
20814;SDS011;10568;48.176;16.316;2023-06-22T05:59:42;6.72;;;2.45;;
20814;SDS011;10568;48.176;16.316;2023-06-22T06:02:08;5.53;;;2.60;;
20814;SDS011;10568;48.176;16.316;2023-06-22T06:04:34;7.25;;;2.97;;
20814;SDS011;10568;48.176;16.316;2023-06-22T06:07:00;9.57;;;2.85;;
20814;SDS011;10568;48.176;16.316;2023-06-22T06:09:26;7.80;;;3.25;;
20814;SDS011;10568;48.176;16.316;2023-06-22T06:11:52;8.40;;;3.00;;
20814;SDS011;10568;48.176;16.316;2023-06-22T06:14:17;8.20;;;3.30;;
20814;SDS011;10568;48.176;16.316;2023-06-22T06:16:43;7.75;;;3.22;;
20814;SDS011;10568;48.176;16.316;2023-06-22T06:19:09;5.65;;;2.88;;
20814;SDS011;10568;48.176;16.316;2023-06-22T06:21:35;9.02;;;3.70;;
20814;SDS011;10568;48.176;16.316;2023-06-22T06:24:01;6.28;;;3.35;;
20814;SDS011;10568;48.176;16.316;2023-06-22T06:26:26;8.75;;;3.63;;
20814;SDS011;10568;48.176;16.316;2023-06-22T06:28:59;7.82;;;3.35;;
20814;SDS011;10568;48.176;16.316;2023-06-22T06:31:25;10.57;;;4.20;;
20814;SDS011;10568;48.176;16.316;2023-06-22T06:33:55;5.93;;;3.38;;
20814;SDS011;10568;48.176;16.316;2023-06-22T06:36:21;10.70;;;3.42;;
20814;SDS011;10568;48.176;16.316;2023-06-22T06:38:46;7.72;;;3.55;;
20814;SDS011;10568;48.176;16.316;2023-06-22T06:41:13;8.13;;;3.50;;
20814;SDS011;10568;48.176;16.316;2023-06-22T06:43:40;5.65;;;3.28;;
20814;SDS011;10568;48.176;16.316;2023-06-22T06:46:08;7.65;;;3.83;;
20814;SDS011;10568;48.176;16.316;2023-06-22T06:48:34;10.70;;;3.95;;
20814;SDS011;10568;48.176;16.316;2023-06-22T06:51:00;7.28;;;3.60;;
20814;SDS011;10568;48.176;16.316;2023-06-22T06:53:26;11.20;;;4.35;;
20814;SDS011;10568;48.176;16.316;2023-06-22T06:55:53;10.77;;;4.13;;
20814;SDS011;10568;48.176;16.316;2023-06-22T06:58:19;11.57;;;4.82;;
20814;SDS011;10568;48.176;16.316;2023-06-22T07:00:45;9.88;;;4.40;;
20814;SDS011;10568;48.176;16.316;2023-06-22T07:03:11;7.03;;;3.97;;
20814;SDS011;10568;48.176;16.316;2023-06-22T07:05:37;11.18;;;4.78;;
20814;SDS011;10568;48.176;16.316;2023-06-22T07:08:02;10.65;;;4.72;;
20814;SDS011;10568;48.176;16.316;2023-06-22T07:10:28;10.05;;;6.28;;
20814;SDS011;10568;48.176;16.316;2023-06-22T07:12:54;10.02;;;5.95;;
20814;SDS011;10568;48.176;16.316;2023-06-22T07:15:22;12.45;;;5.03;;
20814;SDS011;10568;48.176;16.316;2023-06-22T07:17:48;10.57;;;6.10;;
20814;SDS011;10568;48.176;16.316;2023-06-22T07:20:13;14.98;;;8.05;;
20814;SDS011;10568;48.176;16.316;2023-06-22T07:22:40;13.85;;;7.82;;
20814;SDS011;10568;48.176;16.316;2023-06-22T07:25:07;9.70;;;6.75;;
20814;SDS011;10568;48.176;16.316;2023-06-22T07:27:39;12.15;;;7.45;;
20814;SDS011;10568;48.176;16.316;2023-06-22T07:30:10;12.55;;;7.25;;
20814;SDS011;10568;48.176;16.316;2023-06-22T07:32:37;13.90;;;7.47;;
20814;SDS011;10568;48.176;16.316;2023-06-22T07:35:03;16.92;;;8.07;;
20814;SDS011;10568;48.176;16.316;2023-06-22T07:37:29;13.68;;;7.90;;
20814;SDS011;10568;48.176;16.316;2023-06-22T07:39:55;16.75;;;7.97;;
20814;SDS011;10568;48.176;16.316;2023-06-22T07:42:27;12.40;;;7.82;;
20814;SDS011;10568;48.176;16.316;2023-06-22T07:44:58;13.95;;;7.15;;
20814;SDS011;10568;48.176;16.316;2023-06-22T07:47:25;12.93;;;7.78;;
20814;SDS011;10568;48.176;16.316;2023-06-22T07:49:53;14.80;;;7.60;;
20814;SDS011;10568;48.176;16.316;2023-06-22T07:52:26;12.15;;;6.60;;
20814;SDS011;10568;48.176;16.316;2023-06-22T07:54:52;15.48;;;7.07;;
20814;SDS011;10568;48.176;16.316;2023-06-22T07:57:18;14.90;;;7.53;;
20814;SDS011;10568;48.176;16.316;2023-06-22T07:59:44;11.57;;;6.82;;
20814;SDS011;10568;48.176;16.316;2023-06-22T08:02:10;11.63;;;7.05;;
20814;SDS011;10568;48.176;16.316;2023-06-22T08:04:37;13.68;;;7.15;;
20814;SDS011;10568;48.176;16.316;2023-06-22T08:07:03;15.27;;;7.28;;
20814;SDS011;10568;48.176;16.316;2023-06-22T08:09:30;11.45;;;6.75;;
20814;SDS011;10568;48.176;16.316;2023-06-22T08:11:57;11.25;;;6.63;;
20814;SDS011;10568;48.176;16.316;2023-06-22T08:14:24;18.27;;;7.53;;
20814;SDS011;10568;48.176;16.316;2023-06-22T08:16:51;14.07;;;7.20;;
20814;SDS011;10568;48.176;16.316;2023-06-22T08:19:16;12.10;;;7.10;;
20814;SDS011;10568;48.176;16.316;2023-06-22T08:21:43;13.32;;;7.15;;
20814;SDS011;10568;48.176;16.316;2023-06-22T08:24:09;14.30;;;6.70;;
20814;SDS011;10568;48.176;16.316;2023-06-22T08:26:34;14.90;;;6.07;;
20814;SDS011;10568;48.176;16.316;2023-06-22T08:29:03;11.13;;;7.15;;
20814;SDS011;10568;48.176;16.316;2023-06-22T08:31:29;12.80;;;6.63;;
20814;SDS011;10568;48.176;16.316;2023-06-22T08:33:56;10.23;;;6.68;;
20814;SDS011;10568;48.176;16.316;2023-06-22T08:36:21;7.45;;;5.78;;
20814;SDS011;10568;48.176;16.316;2023-06-22T08:38:47;12.55;;;6.95;;
20814;SDS011;10568;48.176;16.316;2023-06-22T08:41:16;16.55;;;6.63;;
20814;SDS011;10568;48.176;16.316;2023-06-22T08:43:42;12.48;;;6.80;;
20814;SDS011;10568;48.176;16.316;2023-06-22T08:46:09;9.30;;;5.88;;
20814;SDS011;10568;48.176;16.316;2023-06-22T08:48:36;11.60;;;6.38;;
20814;SDS011;10568;48.176;16.316;2023-06-22T08:51:02;8.02;;;6.32;;
20814;SDS011;10568;48.176;16.316;2023-06-22T08:53:28;10.90;;;6.40;;
20814;SDS011;10568;48.176;16.316;2023-06-22T08:55:54;9.02;;;5.72;;
20814;SDS011;10568;48.176;16.316;2023-06-22T08:58:21;10.23;;;6.25;;
20814;SDS011;10568;48.176;16.316;2023-06-22T09:00:49;8.48;;;5.60;;
20814;SDS011;10568;48.176;16.316;2023-06-22T09:03:16;8.93;;;6.45;;
20814;SDS011;10568;48.176;16.316;2023-06-22T09:05:42;10.02;;;6.43;;
20814;SDS011;10568;48.176;16.316;2023-06-22T09:08:08;10.85;;;5.80;;
20814;SDS011;10568;48.176;16.316;2023-06-22T09:10:33;10.02;;;6.43;;
20814;SDS011;10568;48.176;16.316;2023-06-22T09:12:59;11.38;;;5.70;;
20814;SDS011;10568;48.176;16.316;2023-06-22T09:15:25;9.15;;;5.43;;
20814;SDS011;10568;48.176;16.316;2023-06-22T09:17:51;10.38;;;5.88;;
20814;SDS011;10568;48.176;16.316;2023-06-22T09:20:19;8.52;;;5.15;;
20814;SDS011;10568;48.176;16.316;2023-06-22T09:22:45;8.50;;;5.22;;
20814;SDS011;10568;48.176;16.316;2023-06-22T09:25:11;11.68;;;5.57;;
20814;SDS011;10568;48.176;16.316;2023-06-22T09:27:37;7.07;;;5.10;;
20814;SDS011;10568;48.176;16.316;2023-06-22T09:30:03;11.05;;;5.15;;
20814;SDS011;10568;48.176;16.316;2023-06-22T09:32:30;9.88;;;5.28;;
20814;SDS011;10568;48.176;16.316;2023-06-22T09:34:55;9.40;;;5.35;;
20814;SDS011;10568;48.176;16.316;2023-06-22T09:37:21;11.80;;;5.75;;
20814;SDS011;10568;48.176;16.316;2023-06-22T09:39:47;9.90;;;6.13;;
20814;SDS011;10568;48.176;16.316;2023-06-22T09:42:13;10.25;;;5.57;;
20814;SDS011;10568;48.176;16.316;2023-06-22T09:44:38;7.93;;;5.40;;
20814;SDS011;10568;48.176;16.316;2023-06-22T09:47:04;9.27;;;5.57;;
20814;SDS011;10568;48.176;16.316;2023-06-22T09:49:31;10.65;;;5.82;;
20814;SDS011;10568;48.176;16.316;2023-06-22T09:51:57;10.88;;;5.18;;
20814;SDS011;10568;48.176;16.316;2023-06-22T09:54:23;7.10;;;5.07;;
20814;SDS011;10568;48.176;16.316;2023-06-22T09:56:48;10.13;;;5.20;;
20814;SDS011;10568;48.176;16.316;2023-06-22T09:59:14;9.23;;;4.75;;
20814;SDS011;10568;48.176;16.316;2023-06-22T10:01:40;7.00;;;4.53;;
20814;SDS011;10568;48.176;16.316;2023-06-22T10:04:05;7.30;;;5.18;;
20814;SDS011;10568;48.176;16.316;2023-06-22T10:06:31;7.70;;;5.47;;
20814;SDS011;10568;48.176;16.316;2023-06-22T10:08:57;7.80;;;5.13;;
20814;SDS011;10568;48.176;16.316;2023-06-22T10:11:23;7.60;;;4.30;;
20814;SDS011;10568;48.176;16.316;2023-06-22T10:13:54;8.15;;;4.70;;
20814;SDS011;10568;48.176;16.316;2023-06-22T10:16:20;7.78;;;4.95;;
20814;SDS011;10568;48.176;16.316;2023-06-22T10:18:46;7.38;;;4.20;;
20814;SDS011;10568;48.176;16.316;2023-06-22T10:21:11;13.57;;;4.30;;
20814;SDS011;10568;48.176;16.316;2023-06-22T10:23:37;12.40;;;4.85;;
20814;SDS011;10568;48.176;16.316;2023-06-22T10:26:03;7.40;;;4.47;;
20814;SDS011;10568;48.176;16.316;2023-06-22T10:28:28;5.50;;;4.15;;
20814;SDS011;10568;48.176;16.316;2023-06-22T10:30:54;7.65;;;3.58;;
20814;SDS011;10568;48.176;16.316;2023-06-22T10:33:20;5.63;;;2.80;;
20814;SDS011;10568;48.176;16.316;2023-06-22T10:35:46;3.92;;;2.97;;
20814;SDS011;10568;48.176;16.316;2023-06-22T10:38:11;6.72;;;3.15;;
20814;SDS011;10568;48.176;16.316;2023-06-22T10:40:37;4.75;;;2.83;;
20814;SDS011;10568;48.176;16.316;2023-06-22T10:43:04;5.47;;;2.35;;
20814;SDS011;10568;48.176;16.316;2023-06-22T10:45:30;7.57;;;3.10;;
20814;SDS011;10568;48.176;16.316;2023-06-22T10:47:56;6.72;;;2.65;;
20814;SDS011;10568;48.176;16.316;2023-06-22T10:50:22;5.63;;;2.45;;
20814;SDS011;10568;48.176;16.316;2023-06-22T10:52:49;5.22;;;2.60;;
20814;SDS011;10568;48.176;16.316;2023-06-22T10:55:15;6.80;;;2.65;;
20814;SDS011;10568;48.176;16.316;2023-06-22T10:57:40;4.97;;;2.58;;
20814;SDS011;10568;48.176;16.316;2023-06-22T11:00:12;5.35;;;2.55;;
20814;SDS011;10568;48.176;16.316;2023-06-22T11:02:38;6.47;;;2.95;;
20814;SDS011;10568;48.176;16.316;2023-06-22T11:05:05;4.25;;;2.45;;
20814;SDS011;10568;48.176;16.316;2023-06-22T11:07:31;6.38;;;2.53;;
20814;SDS011;10568;48.176;16.316;2023-06-22T11:09:57;9.30;;;2.58;;
20814;SDS011;10568;48.176;16.316;2023-06-22T11:12:23;3.60;;;2.35;;
20814;SDS011;10568;48.176;16.316;2023-06-22T11:14:49;4.13;;;2.63;;
20814;SDS011;10568;48.176;16.316;2023-06-22T11:17:18;6.07;;;2.67;;
20814;SDS011;10568;48.176;16.316;2023-06-22T11:19:44;11.15;;;3.58;;
20814;SDS011;10568;48.176;16.316;2023-06-22T11:22:10;9.45;;;2.85;;
20814;SDS011;10568;48.176;16.316;2023-06-22T11:24:36;4.95;;;3.08;;
20814;SDS011;10568;48.176;16.316;2023-06-22T11:27:01;3.92;;;3.08;;
20814;SDS011;10568;48.176;16.316;2023-06-22T11:29:27;5.75;;;3.53;;
20814;SDS011;10568;48.176;16.316;2023-06-22T11:31:53;6.47;;;3.10;;
20814;SDS011;10568;48.176;16.316;2023-06-22T11:34:19;7.00;;;3.50;;
20814;SDS011;10568;48.176;16.316;2023-06-22T11:36:44;6.90;;;3.45;;
20814;SDS011;10568;48.176;16.316;2023-06-22T11:39:10;9.35;;;4.07;;
20814;SDS011;10568;48.176;16.316;2023-06-22T11:41:37;4.50;;;2.95;;
20814;SDS011;10568;48.176;16.316;2023-06-22T11:44:03;4.85;;;3.35;;
20814;SDS011;10568;48.176;16.316;2023-06-22T11:46:29;5.00;;;3.53;;
20814;SDS011;10568;48.176;16.316;2023-06-22T11:48:56;10.27;;;3.25;;
20814;SDS011;10568;48.176;16.316;2023-06-22T11:51:22;6.82;;;2.83;;
20814;SDS011;10568;48.176;16.316;2023-06-22T11:53:48;5.97;;;3.15;;
20814;SDS011;10568;48.176;16.316;2023-06-22T11:56:14;6.97;;;2.85;;
20814;SDS011;10568;48.176;16.316;2023-06-22T11:58:40;4.15;;;2.85;;
20814;SDS011;10568;48.176;16.316;2023-06-22T12:01:05;6.80;;;2.85;;
20814;SDS011;10568;48.176;16.316;2023-06-22T12:03:31;7.40;;;2.80;;
20814;SDS011;10568;48.176;16.316;2023-06-22T12:05:57;5.60;;;2.70;;
20814;SDS011;10568;48.176;16.316;2023-06-22T12:08:24;6.95;;;2.40;;
20814;SDS011;10568;48.176;16.316;2023-06-22T12:10:50;8.45;;;2.72;;
20814;SDS011;10568;48.176;16.316;2023-06-22T12:13:16;6.03;;;2.90;;
20814;SDS011;10568;48.176;16.316;2023-06-22T12:15:42;3.22;;;2.08;;
20814;SDS011;10568;48.176;16.316;2023-06-22T12:18:08;6.78;;;2.63;;
20814;SDS011;10568;48.176;16.316;2023-06-22T12:20:34;5.03;;;2.53;;
20814;SDS011;10568;48.176;16.316;2023-06-22T12:22:59;5.25;;;2.92;;
20814;SDS011;10568;48.176;16.316;2023-06-22T12:25:26;6.53;;;2.80;;
20814;SDS011;10568;48.176;16.316;2023-06-22T12:27:52;6.63;;;2.60;;
20814;SDS011;10568;48.176;16.316;2023-06-22T12:30:18;5.72;;;2.72;;
20814;SDS011;10568;48.176;16.316;2023-06-22T12:32:44;6.18;;;2.55;;
20814;SDS011;10568;48.176;16.316;2023-06-22T12:35:10;4.68;;;2.33;;
20814;SDS011;10568;48.176;16.316;2023-06-22T12:37:42;4.82;;;2.70;;
20814;SDS011;10568;48.176;16.316;2023-06-22T12:40:08;3.55;;;2.60;;
20814;SDS011;10568;48.176;16.316;2023-06-22T12:42:34;7.85;;;2.70;;
20814;SDS011;10568;48.176;16.316;2023-06-22T12:45:00;7.78;;;3.28;;
20814;SDS011;10568;48.176;16.316;2023-06-22T12:47:26;7.70;;;3.60;;
20814;SDS011;10568;48.176;16.316;2023-06-22T12:49:51;5.82;;;3.00;;
20814;SDS011;10568;48.176;16.316;2023-06-22T12:52:17;9.05;;;3.17;;
20814;SDS011;10568;48.176;16.316;2023-06-22T12:54:43;5.82;;;2.97;;
20814;SDS011;10568;48.176;16.316;2023-06-22T12:57:08;6.75;;;2.85;;
20814;SDS011;10568;48.176;16.316;2023-06-22T12:59:34;6.45;;;2.97;;
20814;SDS011;10568;48.176;16.316;2023-06-22T13:02:00;4.72;;;2.88;;
20814;SDS011;10568;48.176;16.316;2023-06-22T13:04:26;5.65;;;3.00;;
20814;SDS011;10568;48.176;16.316;2023-06-22T13:06:51;5.20;;;2.70;;
20814;SDS011;10568;48.176;16.316;2023-06-22T13:09:18;4.82;;;2.53;;
20814;SDS011;10568;48.176;16.316;2023-06-22T13:11:45;9.93;;;3.28;;
20814;SDS011;10568;48.176;16.316;2023-06-22T13:14:10;6.13;;;3.10;;
20814;SDS011;10568;48.176;16.316;2023-06-22T13:16:36;6.80;;;3.22;;
20814;SDS011;10568;48.176;16.316;2023-06-22T13:19:02;7.90;;;3.35;;
20814;SDS011;10568;48.176;16.316;2023-06-22T13:21:28;7.32;;;3.08;;
20814;SDS011;10568;48.176;16.316;2023-06-22T13:23:55;7.57;;;3.20;;
20814;SDS011;10568;48.176;16.316;2023-06-22T13:26:21;9.38;;;3.13;;
20814;SDS011;10568;48.176;16.316;2023-06-22T13:28:47;5.82;;;2.97;;
20814;SDS011;10568;48.176;16.316;2023-06-22T13:31:13;5.18;;;2.72;;
20814;SDS011;10568;48.176;16.316;2023-06-22T13:33:38;5.95;;;3.17;;
20814;SDS011;10568;48.176;16.316;2023-06-22T13:36:06;7.57;;;3.17;;
20814;SDS011;10568;48.176;16.316;2023-06-22T13:38:34;5.25;;;2.83;;
20814;SDS011;10568;48.176;16.316;2023-06-22T13:41:03;8.38;;;3.17;;
20814;SDS011;10568;48.176;16.316;2023-06-22T13:43:29;8.13;;;3.38;;
20814;SDS011;10568;48.176;16.316;2023-06-22T13:45:55;5.00;;;3.30;;
20814;SDS011;10568;48.176;16.316;2023-06-22T13:48:21;5.20;;;3.30;;
20814;SDS011;10568;48.176;16.316;2023-06-22T13:50:48;4.75;;;3.15;;
20814;SDS011;10568;48.176;16.316;2023-06-22T13:53:17;5.80;;;3.08;;
20814;SDS011;10568;48.176;16.316;2023-06-22T13:55:43;9.65;;;3.38;;
20814;SDS011;10568;48.176;16.316;2023-06-22T13:58:09;6.15;;;3.45;;
20814;SDS011;10568;48.176;16.316;2023-06-22T14:00:34;4.60;;;3.20;;
20814;SDS011;10568;48.176;16.316;2023-06-22T14:03:00;6.32;;;3.40;;
20814;SDS011;10568;48.176;16.316;2023-06-22T14:05:26;6.00;;;3.42;;
20814;SDS011;10568;48.176;16.316;2023-06-22T14:07:52;4.43;;;3.70;;
20814;SDS011;10568;48.176;16.316;2023-06-22T14:10:17;7.78;;;3.40;;
20814;SDS011;10568;48.176;16.316;2023-06-22T14:12:43;5.68;;;3.40;;
20814;SDS011;10568;48.176;16.316;2023-06-22T14:15:09;6.22;;;3.92;;
20814;SDS011;10568;48.176;16.316;2023-06-22T14:17:35;5.18;;;3.53;;
20814;SDS011;10568;48.176;16.316;2023-06-22T14:20:01;7.50;;;3.60;;
20814;SDS011;10568;48.176;16.316;2023-06-22T14:22:28;5.88;;;3.10;;
20814;SDS011;10568;48.176;16.316;2023-06-22T14:24:55;9.25;;;3.67;;
20814;SDS011;10568;48.176;16.316;2023-06-22T14:27:22;6.50;;;3.30;;
20814;SDS011;10568;48.176;16.316;2023-06-22T14:29:49;5.88;;;3.50;;
20814;SDS011;10568;48.176;16.316;2023-06-22T14:32:16;7.55;;;3.92;;
20814;SDS011;10568;48.176;16.316;2023-06-22T14:34:46;5.32;;;3.45;;